createdAt,value
2023-02-11T00:00:14.608Z,98.7
2023-02-11T00:30:35.780Z,98.5
2023-02-11T01:00:54.935Z,98.4
2023-02-11T01:31:12.934Z,98.4
2023-02-11T02:01:33.005Z,98.2
2023-02-11T02:31:52.752Z,98.7
2023-02-11T03:02:18.849Z,99.5
2023-02-11T03:32:43.390Z,99.7
2023-02-11T04:03:00.802Z,99.90001
2023-02-11T04:33:17.071Z,99.90001
2023-02-11T05:03:38.798Z,99.90001
2023-02-11T05:33:57.619Z,99.90001
2023-02-11T06:04:16.335Z,99.90001
2023-02-11T06:34:33.785Z,99.90001
2023-02-11T07:04:53.819Z,99.90001
2023-02-11T07:35:11.755Z,99.90001
2023-02-11T08:36:39.785Z,95.7
2023-02-11T09:07:05.640Z,85.4
2023-02-11T09:37:27.952Z,85.30001
2023-02-11T10:07:51.127Z,85.30001
2023-02-11T10:38:25.376Z,86.3
2023-02-11T11:08:59.544Z,86.90001
2023-02-11T11:39:20.823Z,85.4
2023-02-11T12:09:46.158Z,86.4
2023-02-11T12:40:10.707Z,87.1
2023-02-11T13:10:27.796Z,89.5
2023-02-11T13:40:48.492Z,88.6
2023-02-11T14:41:29.390Z,89.7
2023-02-11T15:11:55.569Z,89.7
2023-02-11T15:42:15.614Z,90.5
2023-02-11T16:42:59.808Z,89.00001
2023-02-11T17:13:17.717Z,92.2
2023-02-11T17:43:41.951Z,92.9
2023-02-11T18:44:25.462Z,94.00001
2023-02-11T19:45:28.770Z,95.2
2023-02-11T20:15:46.973Z,95.4
2023-02-11T20:46:10.886Z,95.80001
2023-02-11T21:46:55.147Z,97.80001
2023-02-11T22:17:15.120Z,98.9
2023-02-11T23:18:14.666Z,98.9
2023-02-11T23:48:53.078Z,99.00001
